sensor_id;sensor_type;location;lat;lon;timestamp;temperature;humidity
11538;DHT22;50159;49.426;11.182;2022-10-31T00:01:22;9.90;99.90
11538;DHT22;50159;49.426;11.182;2022-10-31T00:03:51;9.90;99.90
11538;DHT22;50159;49.426;11.182;2022-10-31T00:06:19;9.90;99.90
11538;DHT22;50159;49.426;11.182;2022-10-31T00:08:47;9.90;99.90
11538;DHT22;50159;49.426;11.182;2022-10-31T00:11:17;9.90;99.90
11538;DHT22;50159;49.426;11.182;2022-10-31T00:13:44;9.80;99.90
11538;DHT22;50159;49.426;11.182;2022-10-31T00:16:22;9.80;99.90
11538;DHT22;50159;49.426;11.182;2022-10-31T00:18:56;9.70;99.90
11538;DHT22;50159;49.426;11.182;2022-10-31T00:21:24;9.70;99.90
11538;DHT22;50159;49.426;11.182;2022-10-31T00:23:52;9.70;99.90
11538;DHT22;50159;49.426;11.182;2022-10-31T00:26:19;9.70;99.90
11538;DHT22;50159;49.426;11.182;2022-10-31T00:28:46;9.60;99.90
11538;DHT22;50159;49.426;11.182;2022-10-31T00:31:13;9.60;99.90
11538;DHT22;50159;49.426;11.182;2022-10-31T00:33:41;9.60;99.90
11538;DHT22;50159;49.426;11.182;2022-10-31T00:36:15;9.60;99.90
11538;DHT22;50159;49.426;11.182;2022-10-31T00:38:45;9.50;99.90
11538;DHT22;50159;49.426;11.182;2022-10-31T00:41:14;9.50;99.90
11538;DHT22;50159;49.426;11.182;2022-10-31T00:43:43;9.50;99.90
11538;DHT22;50159;49.426;11.182;2022-10-31T00:46:10;9.50;99.90
11538;DHT22;50159;49.426;11.182;2022-10-31T00:48:38;9.40;99.90
11538;DHT22;50159;49.426;11.182;2022-10-31T00:51:05;9.40;99.90
11538;DHT22;50159;49.426;11.182;2022-10-31T00:53:32;9.40;99.90
11538;DHT22;50159;49.426;11.182;2022-10-31T00:55:59;9.40;99.90
11538;DHT22;50159;49.426;11.182;2022-10-31T00:58:26;9.40;99.90
11538;DHT22;50159;49.426;11.182;2022-10-31T01:00:53;9.40;99.90
11538;DHT22;50159;49.426;11.182;2022-10-31T01:03:28;9.40;99.90
11538;DHT22;50159;49.426;11.182;2022-10-31T01:06:05;9.40;99.90
11538;DHT22;50159;49.426;11.182;2022-10-31T01:08:37;9.40;99.90
11538;DHT22;50159;49.426;11.182;2022-10-31T01:11:11;9.40;99.90
11538;DHT22;50159;49.426;11.182;2022-10-31T01:13:41;9.40;99.90
11538;DHT22;50159;49.426;11.182;2022-10-31T01:16:11;9.30;99.90
11538;DHT22;50159;49.426;11.182;2022-10-31T01:18:41;9.30;99.90
11538;DHT22;50159;49.426;11.182;2022-10-31T01:21:11;9.20;99.90
11538;DHT22;50159;49.426;11.182;2022-10-31T01:23:40;9.20;99.90
11538;DHT22;50159;49.426;11.182;2022-10-31T01:26:15;9.20;99.90
11538;DHT22;50159;49.426;11.182;2022-10-31T01:28:50;9.20;99.90
11538;DHT22;50159;49.426;11.182;2022-10-31T01:31:21;9.10;99.90
11538;DHT22;50159;49.426;11.182;2022-10-31T01:33:49;9.10;99.90
11538;DHT22;50159;49.426;11.182;2022-10-31T01:39:01;9.00;99.90
11538;DHT22;50159;49.426;11.182;2022-10-31T01:41:33;9.00;99.90
11538;DHT22;50159;49.426;11.182;2022-10-31T01:44:49;9.00;99.90
11538;DHT22;50159;49.426;11.182;2022-10-31T01:49:54;9.00;99.90
11538;DHT22;50159;49.426;11.182;2022-10-31T01:52:31;8.90;99.90
11538;DHT22;50159;49.426;11.182;2022-10-31T01:55:13;8.90;99.90
11538;DHT22;50159;49.426;11.182;2022-10-31T01:57:46;8.90;99.90
11538;DHT22;50159;49.426;11.182;2022-10-31T02:00:19;8.90;99.90
11538;DHT22;50159;49.426;11.182;2022-10-31T02:02:49;8.90;99.90
11538;DHT22;50159;49.426;11.182;2022-10-31T02:05:19;8.80;99.90
11538;DHT22;50159;49.426;11.182;2022-10-31T02:07:55;8.80;99.90
11538;DHT22;50159;49.426;11.182;2022-10-31T02:10:26;8.80;99.90
11538;DHT22;50159;49.426;11.182;2022-10-31T02:12:56;8.80;99.90
11538;DHT22;50159;49.426;11.182;2022-10-31T02:15:25;8.80;99.90
11538;DHT22;50159;49.426;11.182;2022-10-31T02:17:52;8.80;99.90
11538;DHT22;50159;49.426;11.182;2022-10-31T02:20:21;8.80;99.90
11538;DHT22;50159;49.426;11.182;2022-10-31T02:31:43;8.70;99.90
11538;DHT22;50159;49.426;11.182;2022-10-31T02:34:35;8.70;99.90
11538;DHT22;50159;49.426;11.182;2022-10-31T02:37:09;8.70;99.90
11538;DHT22;50159;49.426;11.182;2022-10-31T02:39:52;8.70;99.90
11538;DHT22;50159;49.426;11.182;2022-10-31T02:42:47;8.70;99.90
11538;DHT22;50159;49.426;11.182;2022-10-31T02:45:27;8.70;99.90
11538;DHT22;50159;49.426;11.182;2022-10-31T02:48:01;8.70;99.90
11538;DHT22;50159;49.426;11.182;2022-10-31T02:50:37;8.60;99.90
11538;DHT22;50159;49.426;11.182;2022-10-31T02:53:08;8.60;99.90
11538;DHT22;50159;49.426;11.182;2022-10-31T02:58:12;8.50;99.90
11538;DHT22;50159;49.426;11.182;2022-10-31T03:07:08;8.40;99.90
11538;DHT22;50159;49.426;11.182;2022-10-31T03:12:39;8.40;99.90
11538;DHT22;50159;49.426;11.182;2022-10-31T03:15:21;8.40;99.90
11538;DHT22;50159;49.426;11.182;2022-10-31T03:20:37;8.30;99.90
11538;DHT22;50159;49.426;11.182;2022-10-31T03:23:12;8.30;99.90
11538;DHT22;50159;49.426;11.182;2022-10-31T03:25:43;8.20;99.90
11538;DHT22;50159;49.426;11.182;2022-10-31T03:28:12;8.20;99.90
11538;DHT22;50159;49.426;11.182;2022-10-31T03:30:47;8.20;99.90
11538;DHT22;50159;49.426;11.182;2022-10-31T03:33:18;8.20;99.90
11538;DHT22;50159;49.426;11.182;2022-10-31T03:35:53;8.20;99.90
11538;DHT22;50159;49.426;11.182;2022-10-31T03:38:23;8.20;99.90
11538;DHT22;50159;49.426;11.182;2022-10-31T03:40:51;8.10;99.90
11538;DHT22;50159;49.426;11.182;2022-10-31T03:43:27;8.10;99.90
11538;DHT22;50159;49.426;11.182;2022-10-31T03:45:57;8.10;99.90
11538;DHT22;50159;49.426;11.182;2022-10-31T03:48:25;8.10;99.90
11538;DHT22;50159;49.426;11.182;2022-10-31T03:51:09;8.10;99.90
11538;DHT22;50159;49.426;11.182;2022-10-31T03:54:09;8.00;99.90
11538;DHT22;50159;49.426;11.182;2022-10-31T03:56:58;8.00;99.90
11538;DHT22;50159;49.426;11.182;2022-10-31T03:59:36;8.00;99.90
11538;DHT22;50159;49.426;11.182;2022-10-31T04:02:10;8.00;99.90
11538;DHT22;50159;49.426;11.182;2022-10-31T04:04:41;8.00;99.90
11538;DHT22;50159;49.426;11.182;2022-10-31T04:07:11;7.90;99.90
11538;DHT22;50159;49.426;11.182;2022-10-31T04:09:42;7.90;99.90
11538;DHT22;50159;49.426;11.182;2022-10-31T04:12:13;7.90;99.90
11538;DHT22;50159;49.426;11.182;2022-10-31T04:14:44;7.90;99.90
11538;DHT22;50159;49.426;11.182;2022-10-31T04:17:16;7.90;99.90
11538;DHT22;50159;49.426;11.182;2022-10-31T04:19:46;7.90;99.90
11538;DHT22;50159;49.426;11.182;2022-10-31T04:22:13;7.90;99.90
11538;DHT22;50159;49.426;11.182;2022-10-31T04:24:40;7.80;99.90
11538;DHT22;50159;49.426;11.182;2022-10-31T04:27:07;7.80;99.90
11538;DHT22;50159;49.426;11.182;2022-10-31T04:29:34;7.80;99.90
11538;DHT22;50159;49.426;11.182;2022-10-31T04:32:01;7.80;99.90
11538;DHT22;50159;49.426;11.182;2022-10-31T04:34:27;7.80;99.90
11538;DHT22;50159;49.426;11.182;2022-10-31T04:36:54;7.80;99.90
11538;DHT22;50159;49.426;11.182;2022-10-31T04:39:21;7.80;99.90
11538;DHT22;50159;49.426;11.182;2022-10-31T04:41:52;7.80;99.90
11538;DHT22;50159;49.426;11.182;2022-10-31T04:44:19;7.80;99.90
11538;DHT22;50159;49.426;11.182;2022-10-31T04:46:45;7.80;99.90
11538;DHT22;50159;49.426;11.182;2022-10-31T04:49:12;7.80;99.90
11538;DHT22;50159;49.426;11.182;2022-10-31T04:51:39;7.80;99.90
11538;DHT22;50159;49.426;11.182;2022-10-31T04:54:06;7.80;99.90
11538;DHT22;50159;49.426;11.182;2022-10-31T04:56:33;7.80;99.90
11538;DHT22;50159;49.426;11.182;2022-10-31T04:59:00;7.80;99.90
11538;DHT22;50159;49.426;11.182;2022-10-31T05:01:26;7.80;99.90
11538;DHT22;50159;49.426;11.182;2022-10-31T05:03:54;7.80;99.90
11538;DHT22;50159;49.426;11.182;2022-10-31T05:06:21;7.80;99.90
11538;DHT22;50159;49.426;11.182;2022-10-31T05:08:48;7.80;99.90
11538;DHT22;50159;49.426;11.182;2022-10-31T05:11:15;7.80;99.90
11538;DHT22;50159;49.426;11.182;2022-10-31T05:13:41;7.80;99.90
11538;DHT22;50159;49.426;11.182;2022-10-31T05:16:08;7.80;99.90
11538;DHT22;50159;49.426;11.182;2022-10-31T05:18:35;7.80;99.90
11538;DHT22;50159;49.426;11.182;2022-10-31T05:21:02;7.80;99.90
11538;DHT22;50159;49.426;11.182;2022-10-31T05:23:29;7.80;99.90
11538;DHT22;50159;49.426;11.182;2022-10-31T05:25:56;7.80;99.90
11538;DHT22;50159;49.426;11.182;2022-10-31T05:28:22;7.80;99.90
11538;DHT22;50159;49.426;11.182;2022-10-31T05:30:49;7.80;99.90
11538;DHT22;50159;49.426;11.182;2022-10-31T05:33:16;7.80;99.90
11538;DHT22;50159;49.426;11.182;2022-10-31T05:35:43;7.70;99.90
11538;DHT22;50159;49.426;11.182;2022-10-31T05:38:09;7.70;99.90
11538;DHT22;50159;49.426;11.182;2022-10-31T05:40:36;7.70;99.90
11538;DHT22;50159;49.426;11.182;2022-10-31T05:43:03;7.60;99.90
11538;DHT22;50159;49.426;11.182;2022-10-31T05:45:30;7.60;99.90
11538;DHT22;50159;49.426;11.182;2022-10-31T05:47:58;7.60;99.90
11538;DHT22;50159;49.426;11.182;2022-10-31T05:50:29;7.60;99.90
11538;DHT22;50159;49.426;11.182;2022-10-31T05:53:03;7.50;99.90
11538;DHT22;50159;49.426;11.182;2022-10-31T05:55:31;7.50;99.90
11538;DHT22;50159;49.426;11.182;2022-10-31T05:57:58;7.50;99.90
11538;DHT22;50159;49.426;11.182;2022-10-31T06:00:26;7.50;99.90
11538;DHT22;50159;49.426;11.182;2022-10-31T06:02:58;7.50;99.90
11538;DHT22;50159;49.426;11.182;2022-10-31T06:05:31;7.50;99.90
11538;DHT22;50159;49.426;11.182;2022-10-31T06:07:58;7.40;99.90
11538;DHT22;50159;49.426;11.182;2022-10-31T06:10:26;7.40;99.90
11538;DHT22;50159;49.426;11.182;2022-10-31T06:12:53;7.40;99.90
11538;DHT22;50159;49.426;11.182;2022-10-31T06:15:20;7.40;99.90
11538;DHT22;50159;49.426;11.182;2022-10-31T06:18:04;7.50;99.90
11538;DHT22;50159;49.426;11.182;2022-10-31T06:20:33;7.40;99.90
11538;DHT22;50159;49.426;11.182;2022-10-31T06:23:00;7.50;99.90
11538;DHT22;50159;49.426;11.182;2022-10-31T06:25:28;7.60;99.90
11538;DHT22;50159;49.426;11.182;2022-10-31T06:27:56;7.60;99.90
11538;DHT22;50159;49.426;11.182;2022-10-31T06:30:23;7.60;99.90
11538;DHT22;50159;49.426;11.182;2022-10-31T06:32:50;7.60;99.90
11538;DHT22;50159;49.426;11.182;2022-10-31T06:35:17;7.60;99.90
11538;DHT22;50159;49.426;11.182;2022-10-31T06:37:51;7.60;99.90
11538;DHT22;50159;49.426;11.182;2022-10-31T06:40:19;7.60;99.90
11538;DHT22;50159;49.426;11.182;2022-10-31T06:42:46;7.70;99.90
11538;DHT22;50159;49.426;11.182;2022-10-31T06:45:13;7.70;99.90
11538;DHT22;50159;49.426;11.182;2022-10-31T06:47:40;7.80;99.90
11538;DHT22;50159;49.426;11.182;2022-10-31T06:50:26;7.80;99.90
11538;DHT22;50159;49.426;11.182;2022-10-31T06:52:55;7.90;99.90
11538;DHT22;50159;49.426;11.182;2022-10-31T06:55:25;7.90;99.90
11538;DHT22;50159;49.426;11.182;2022-10-31T06:57:57;8.00;99.90
11538;DHT22;50159;49.426;11.182;2022-10-31T07:00:30;8.10;99.90
11538;DHT22;50159;49.426;11.182;2022-10-31T07:03:02;8.20;99.90
11538;DHT22;50159;49.426;11.182;2022-10-31T07:05:31;8.50;99.90
11538;DHT22;50159;49.426;11.182;2022-10-31T07:08:00;9.20;99.90
11538;DHT22;50159;49.426;11.182;2022-10-31T07:10:30;10.00;99.90
11538;DHT22;50159;49.426;11.182;2022-10-31T07:13:06;11.00;99.90
11538;DHT22;50159;49.426;11.182;2022-10-31T07:15:37;11.90;99.90
11538;DHT22;50159;49.426;11.182;2022-10-31T07:18:08;12.50;99.90
11538;DHT22;50159;49.426;11.182;2022-10-31T07:20:36;12.40;99.90
11538;DHT22;50159;49.426;11.182;2022-10-31T07:23:03;12.20;99.90
11538;DHT22;50159;49.426;11.182;2022-10-31T07:25:30;12.10;99.90
11538;DHT22;50159;49.426;11.182;2022-10-31T07:27:57;12.00;99.90
11538;DHT22;50159;49.426;11.182;2022-10-31T07:30:24;11.90;99.90
11538;DHT22;50159;49.426;11.182;2022-10-31T07:32:51;11.80;99.90
11538;DHT22;50159;49.426;11.182;2022-10-31T07:35:23;11.70;99.90
11538;DHT22;50159;49.426;11.182;2022-10-31T07:37:52;11.60;99.90
11538;DHT22;50159;49.426;11.182;2022-10-31T07:40:20;11.70;99.90
11538;DHT22;50159;49.426;11.182;2022-10-31T07:42:50;11.80;99.90
11538;DHT22;50159;49.426;11.182;2022-10-31T07:45:20;12.00;99.90
11538;DHT22;50159;49.426;11.182;2022-10-31T07:47:51;12.10;99.90
11538;DHT22;50159;49.426;11.182;2022-10-31T07:50:21;12.20;99.90
11538;DHT22;50159;49.426;11.182;2022-10-31T07:53:10;12.30;99.90
11538;DHT22;50159;49.426;11.182;2022-10-31T07:55:38;12.40;99.90
11538;DHT22;50159;49.426;11.182;2022-10-31T08:00:38;12.70;99.90
11538;DHT22;50159;49.426;11.182;2022-10-31T08:03:09;12.80;99.90
11538;DHT22;50159;49.426;11.182;2022-10-31T08:05:37;12.90;99.90
11538;DHT22;50159;49.426;11.182;2022-10-31T08:08:05;13.00;99.90
11538;DHT22;50159;49.426;11.182;2022-10-31T08:10:33;13.10;99.90
11538;DHT22;50159;49.426;11.182;2022-10-31T08:13:03;13.20;99.90
11538;DHT22;50159;49.426;11.182;2022-10-31T08:15:32;13.30;99.90
11538;DHT22;50159;49.426;11.182;2022-10-31T08:18:00;13.40;99.90
11538;DHT22;50159;49.426;11.182;2022-10-31T08:20:28;13.60;99.90
11538;DHT22;50159;49.426;11.182;2022-10-31T08:22:59;13.70;99.90
11538;DHT22;50159;49.426;11.182;2022-10-31T08:25:29;13.70;99.90
11538;DHT22;50159;49.426;11.182;2022-10-31T08:28:04;13.80;99.90
11538;DHT22;50159;49.426;11.182;2022-10-31T08:30:33;13.90;99.90
11538;DHT22;50159;49.426;11.182;2022-10-31T08:33:16;14.00;99.90
11538;DHT22;50159;49.426;11.182;2022-10-31T08:35:44;14.10;99.90
11538;DHT22;50159;49.426;11.182;2022-10-31T08:38:12;14.30;99.90
11538;DHT22;50159;49.426;11.182;2022-10-31T08:40:39;14.40;99.90
11538;DHT22;50159;49.426;11.182;2022-10-31T08:43:15;14.60;99.90
11538;DHT22;50159;49.426;11.182;2022-10-31T08:45:44;14.80;99.90
11538;DHT22;50159;49.426;11.182;2022-10-31T08:48:15;15.00;99.90
11538;DHT22;50159;49.426;11.182;2022-10-31T08:50:44;15.10;99.90
11538;DHT22;50159;49.426;11.182;2022-10-31T08:53:13;15.30;99.90
11538;DHT22;50159;49.426;11.182;2022-10-31T08:55:46;15.40;99.90
11538;DHT22;50159;49.426;11.182;2022-10-31T08:58:16;15.60;99.90
11538;DHT22;50159;49.426;11.182;2022-10-31T09:00:45;15.70;99.90
11538;DHT22;50159;49.426;11.182;2022-10-31T09:03:16;15.90;99.90
11538;DHT22;50159;49.426;11.182;2022-10-31T09:05:46;16.00;99.90
11538;DHT22;50159;49.426;11.182;2022-10-31T09:08:13;16.20;99.90
11538;DHT22;50159;49.426;11.182;2022-10-31T09:10:43;16.30;99.90
11538;DHT22;50159;49.426;11.182;2022-10-31T09:13:12;16.50;99.90
11538;DHT22;50159;49.426;11.182;2022-10-31T09:15:42;16.60;99.90
11538;DHT22;50159;49.426;11.182;2022-10-31T09:18:11;16.70;99.90
11538;DHT22;50159;49.426;11.182;2022-10-31T09:20:41;16.90;99.90
11538;DHT22;50159;49.426;11.182;2022-10-31T09:23:17;17.00;99.90
11538;DHT22;50159;49.426;11.182;2022-10-31T09:25:47;17.20;99.90
11538;DHT22;50159;49.426;11.182;2022-10-31T09:28:19;17.20;99.90
11538;DHT22;50159;49.426;11.182;2022-10-31T09:30:49;17.30;99.90
11538;DHT22;50159;49.426;11.182;2022-10-31T09:33:17;17.50;99.90
11538;DHT22;50159;49.426;11.182;2022-10-31T09:35:45;17.50;99.90
11538;DHT22;50159;49.426;11.182;2022-10-31T09:38:15;17.60;99.90
11538;DHT22;50159;49.426;11.182;2022-10-31T09:46:52;18.00;99.90
11538;DHT22;50159;49.426;11.182;2022-10-31T09:49:28;18.20;99.90
11538;DHT22;50159;49.426;11.182;2022-10-31T09:52:24;18.40;99.90
11538;DHT22;50159;49.426;11.182;2022-10-31T09:55:12;18.50;99.90
11538;DHT22;50159;49.426;11.182;2022-10-31T09:57:44;18.70;99.90
11538;DHT22;50159;49.426;11.182;2022-10-31T10:00:18;18.80;99.90
11538;DHT22;50159;49.426;11.182;2022-10-31T10:02:56;18.90;99.90
11538;DHT22;50159;49.426;11.182;2022-10-31T10:05:34;19.10;99.90
11538;DHT22;50159;49.426;11.182;2022-10-31T10:08:21;19.20;99.90
11538;DHT22;50159;49.426;11.182;2022-10-31T10:11:13;19.30;99.90
11538;DHT22;50159;49.426;11.182;2022-10-31T10:14:16;19.40;99.90
11538;DHT22;50159;49.426;11.182;2022-10-31T10:17:16;19.60;99.90
11538;DHT22;50159;49.426;11.182;2022-10-31T10:20:18;19.80;99.90
11538;DHT22;50159;49.426;11.182;2022-10-31T10:23:34;20.10;99.90
11538;DHT22;50159;49.426;11.182;2022-10-31T10:28:42;20.50;99.90
11538;DHT22;50159;49.426;11.182;2022-10-31T10:31:16;20.60;99.90
11538;DHT22;50159;49.426;11.182;2022-10-31T10:33:51;20.70;99.90
11538;DHT22;50159;49.426;11.182;2022-10-31T10:36:45;20.90;99.90
11538;DHT22;50159;49.426;11.182;2022-10-31T10:39:21;21.10;99.90
11538;DHT22;50159;49.426;11.182;2022-10-31T10:41:51;21.20;99.90
11538;DHT22;50159;49.426;11.182;2022-10-31T10:44:46;21.30;99.90
11538;DHT22;50159;49.426;11.182;2022-10-31T10:47:41;21.50;99.90
11538;DHT22;50159;49.426;11.182;2022-10-31T10:50:19;21.60;99.90
11538;DHT22;50159;49.426;11.182;2022-10-31T10:52:50;21.70;99.90
11538;DHT22;50159;49.426;11.182;2022-10-31T10:55:39;21.90;99.90
11538;DHT22;50159;49.426;11.182;2022-10-31T10:58:16;21.90;99.50
11538;DHT22;50159;49.426;11.182;2022-10-31T11:00:45;22.00;99.30
11538;DHT22;50159;49.426;11.182;2022-10-31T11:03:14;22.00;99.10
11538;DHT22;50159;49.426;11.182;2022-10-31T11:05:54;22.10;98.40
11538;DHT22;50159;49.426;11.182;2022-10-31T11:11:05;22.10;97.60
11538;DHT22;50159;49.426;11.182;2022-10-31T11:13:42;22.10;97.10
11538;DHT22;50159;49.426;11.182;2022-10-31T11:16:15;22.10;97.20
11538;DHT22;50159;49.426;11.182;2022-10-31T11:19:08;22.20;96.70
11538;DHT22;50159;49.426;11.182;2022-10-31T11:21:42;22.20;96.10
11538;DHT22;50159;49.426;11.182;2022-10-31T11:24:24;22.20;94.40
11538;DHT22;50159;49.426;11.182;2022-10-31T11:27:09;22.20;94.90
11538;DHT22;50159;49.426;11.182;2022-10-31T11:29:40;22.30;95.10
11538;DHT22;50159;49.426;11.182;2022-10-31T11:32:20;22.30;95.10
11538;DHT22;50159;49.426;11.182;2022-10-31T11:34:54;22.30;95.20
11538;DHT22;50159;49.426;11.182;2022-10-31T11:37:26;22.30;94.90
11538;DHT22;50159;49.426;11.182;2022-10-31T11:39:58;22.20;94.50
11538;DHT22;50159;49.426;11.182;2022-10-31T11:42:36;22.20;93.90
11538;DHT22;50159;49.426;11.182;2022-10-31T11:45:17;22.30;93.60
11538;DHT22;50159;49.426;11.182;2022-10-31T11:48:01;22.40;93.00
11538;DHT22;50159;49.426;11.182;2022-10-31T11:50:38;22.50;92.10
11538;DHT22;50159;49.426;11.182;2022-10-31T11:53:16;22.50;92.10
11538;DHT22;50159;49.426;11.182;2022-10-31T11:55:45;22.50;92.00
11538;DHT22;50159;49.426;11.182;2022-10-31T11:58:24;22.40;91.30
11538;DHT22;50159;49.426;11.182;2022-10-31T12:00:54;22.50;92.10
11538;DHT22;50159;49.426;11.182;2022-10-31T12:08:44;22.80;91.00
11538;DHT22;50159;49.426;11.182;2022-10-31T12:11:41;22.90;89.60
11538;DHT22;50159;49.426;11.182;2022-10-31T12:21:25;23.30;86.80
11538;DHT22;50159;49.426;11.182;2022-10-31T12:30:08;23.30;81.50
11538;DHT22;50159;49.426;11.182;2022-10-31T12:32:57;23.30;82.20
11538;DHT22;50159;49.426;11.182;2022-10-31T12:39:21;23.50;80.70
11538;DHT22;50159;49.426;11.182;2022-10-31T12:42:15;23.70;81.10
11538;DHT22;50159;49.426;11.182;2022-10-31T12:48:01;23.80;76.60
11538;DHT22;50159;49.426;11.182;2022-10-31T12:59:27;24.00;68.20
11538;DHT22;50159;49.426;11.182;2022-10-31T13:02:23;24.10;63.80
11538;DHT22;50159;49.426;11.182;2022-10-31T13:08:19;24.00;60.50
11538;DHT22;50159;49.426;11.182;2022-10-31T13:11:10;23.80;59.20
11538;DHT22;50159;49.426;11.182;2022-10-31T13:16:28;23.20;59.30
11538;DHT22;50159;49.426;11.182;2022-10-31T13:22:15;22.70;59.20
11538;DHT22;50159;49.426;11.182;2022-10-31T13:25:02;22.40;58.80
11538;DHT22;50159;49.426;11.182;2022-10-31T13:27:53;22.20;58.50
11538;DHT22;50159;49.426;11.182;2022-10-31T13:30:32;22.00;58.90
11538;DHT22;50159;49.426;11.182;2022-10-31T13:33:13;21.90;60.80
11538;DHT22;50159;49.426;11.182;2022-10-31T13:38:38;21.60;61.50
11538;DHT22;50159;49.426;11.182;2022-10-31T13:41:41;21.50;61.60
11538;DHT22;50159;49.426;11.182;2022-10-31T13:44:16;21.40;60.80
11538;DHT22;50159;49.426;11.182;2022-10-31T13:46:47;21.40;61.90
11538;DHT22;50159;49.426;11.182;2022-10-31T13:49:40;21.40;62.70
11538;DHT22;50159;49.426;11.182;2022-10-31T13:54:39;22.30;62.30
11538;DHT22;50159;49.426;11.182;2022-10-31T13:57:22;23.20;61.60
11538;DHT22;50159;49.426;11.182;2022-10-31T14:02:49;27.50;52.20
11538;DHT22;50159;49.426;11.182;2022-10-31T14:05:29;28.20;47.70
11538;DHT22;50159;49.426;11.182;2022-10-31T14:08:00;27.80;47.90
11538;DHT22;50159;49.426;11.182;2022-10-31T14:10:31;27.00;48.60
11538;DHT22;50159;49.426;11.182;2022-10-31T14:13:21;26.40;49.40
11538;DHT22;50159;49.426;11.182;2022-10-31T14:15:55;25.60;51.50
11538;DHT22;50159;49.426;11.182;2022-10-31T14:18:37;24.80;52.80
11538;DHT22;50159;49.426;11.182;2022-10-31T14:23:51;23.30;57.00
11538;DHT22;50159;49.426;11.182;2022-10-31T14:28:55;22.30;59.80
11538;DHT22;50159;49.426;11.182;2022-10-31T14:31:38;21.80;60.00
11538;DHT22;50159;49.426;11.182;2022-10-31T14:34:30;21.40;61.50
11538;DHT22;50159;49.426;11.182;2022-10-31T14:37:35;21.10;63.70
11538;DHT22;50159;49.426;11.182;2022-10-31T14:43:22;20.50;68.10
11538;DHT22;50159;49.426;11.182;2022-10-31T14:46:16;20.30;68.90
11538;DHT22;50159;49.426;11.182;2022-10-31T14:51:58;19.90;70.20
11538;DHT22;50159;49.426;11.182;2022-10-31T14:54:30;19.70;73.00
11538;DHT22;50159;49.426;11.182;2022-10-31T14:57:06;19.60;74.40
11538;DHT22;50159;49.426;11.182;2022-10-31T14:59:41;19.50;75.20
11538;DHT22;50159;49.426;11.182;2022-10-31T15:05:10;19.30;77.70
11538;DHT22;50159;49.426;11.182;2022-10-31T15:07:49;19.10;79.40
11538;DHT22;50159;49.426;11.182;2022-10-31T15:10:44;19.00;80.80
11538;DHT22;50159;49.426;11.182;2022-10-31T15:13:20;18.90;82.50
11538;DHT22;50159;49.426;11.182;2022-10-31T15:15:50;18.80;84.20
11538;DHT22;50159;49.426;11.182;2022-10-31T15:18:24;18.60;85.70
11538;DHT22;50159;49.426;11.182;2022-10-31T15:20:54;18.50;87.50
11538;DHT22;50159;49.426;11.182;2022-10-31T15:23:28;18.40;89.60
11538;DHT22;50159;49.426;11.182;2022-10-31T15:26:03;18.30;90.80
11538;DHT22;50159;49.426;11.182;2022-10-31T15:28:32;18.10;91.70
11538;DHT22;50159;49.426;11.182;2022-10-31T15:31:00;18.00;92.60
11538;DHT22;50159;49.426;11.182;2022-10-31T15:33:31;17.90;93.70
11538;DHT22;50159;49.426;11.182;2022-10-31T15:36:24;17.80;94.80
11538;DHT22;50159;49.426;11.182;2022-10-31T15:38:56;17.70;96.30
11538;DHT22;50159;49.426;11.182;2022-10-31T15:44:29;17.50;98.60
11538;DHT22;50159;49.426;11.182;2022-10-31T15:47:18;17.40;99.90
11538;DHT22;50159;49.426;11.182;2022-10-31T15:49:55;17.40;99.90
11538;DHT22;50159;49.426;11.182;2022-10-31T15:52:30;17.30;99.90
11538;DHT22;50159;49.426;11.182;2022-10-31T15:57:40;17.10;99.90
11538;DHT22;50159;49.426;11.182;2022-10-31T16:00:32;17.00;99.90
11538;DHT22;50159;49.426;11.182;2022-10-31T16:03:32;16.90;99.90
11538;DHT22;50159;49.426;11.182;2022-10-31T16:06:01;16.80;99.90
11538;DHT22;50159;49.426;11.182;2022-10-31T16:16:19;16.40;99.90
11538;DHT22;50159;49.426;11.182;2022-10-31T16:19:05;16.30;99.90
11538;DHT22;50159;49.426;11.182;2022-10-31T16:21:43;16.30;99.90
11538;DHT22;50159;49.426;11.182;2022-10-31T16:24:26;16.20;99.90
11538;DHT22;50159;49.426;11.182;2022-10-31T16:27:07;16.10;99.90
11538;DHT22;50159;49.426;11.182;2022-10-31T16:29:46;16.00;99.90
11538;DHT22;50159;49.426;11.182;2022-10-31T16:34:59;15.80;99.90
11538;DHT22;50159;49.426;11.182;2022-10-31T16:37:44;15.80;99.90
11538;DHT22;50159;49.426;11.182;2022-10-31T16:40:12;15.70;99.90
11538;DHT22;50159;49.426;11.182;2022-10-31T16:42:40;15.60;99.90
11538;DHT22;50159;49.426;11.182;2022-10-31T16:45:18;15.50;99.90
11538;DHT22;50159;49.426;11.182;2022-10-31T16:47:47;15.50;99.90
11538;DHT22;50159;49.426;11.182;2022-10-31T16:50:26;15.40;99.90
11538;DHT22;50159;49.426;11.182;2022-10-31T16:52:53;15.20;99.90
11538;DHT22;50159;49.426;11.182;2022-10-31T16:55:50;15.20;99.90
11538;DHT22;50159;49.426;11.182;2022-10-31T16:58:24;15.10;99.90
11538;DHT22;50159;49.426;11.182;2022-10-31T17:00:52;14.90;99.90
11538;DHT22;50159;49.426;11.182;2022-10-31T17:03:19;14.90;99.90
11538;DHT22;50159;49.426;11.182;2022-10-31T17:05:46;14.80;99.90
11538;DHT22;50159;49.426;11.182;2022-10-31T17:08:14;14.70;99.90
11538;DHT22;50159;49.426;11.182;2022-10-31T17:10:42;14.60;99.90
11538;DHT22;50159;49.426;11.182;2022-10-31T17:13:26;14.50;99.90
11538;DHT22;50159;49.426;11.182;2022-10-31T17:15:58;14.40;99.90
11538;DHT22;50159;49.426;11.182;2022-10-31T17:18:26;14.30;99.90
11538;DHT22;50159;49.426;11.182;2022-10-31T17:21:03;14.30;99.90
11538;DHT22;50159;49.426;11.182;2022-10-31T17:23:31;14.20;99.90
11538;DHT22;50159;49.426;11.182;2022-10-31T17:25:59;14.10;99.90
11538;DHT22;50159;49.426;11.182;2022-10-31T17:28:26;14.00;99.90
11538;DHT22;50159;49.426;11.182;2022-10-31T17:30:56;13.90;99.90
11538;DHT22;50159;49.426;11.182;2022-10-31T17:33:24;13.80;99.90
11538;DHT22;50159;49.426;11.182;2022-10-31T17:35:51;13.80;99.90
11538;DHT22;50159;49.426;11.182;2022-10-31T17:38:18;13.70;99.90
11538;DHT22;50159;49.426;11.182;2022-10-31T17:40:45;13.60;99.90
11538;DHT22;50159;49.426;11.182;2022-10-31T17:43:16;13.60;99.90
11538;DHT22;50159;49.426;11.182;2022-10-31T17:45:43;13.50;99.90
11538;DHT22;50159;49.426;11.182;2022-10-31T17:48:11;13.40;99.90
11538;DHT22;50159;49.426;11.182;2022-10-31T17:50:38;13.40;99.90
11538;DHT22;50159;49.426;11.182;2022-10-31T17:53:05;13.30;99.90
11538;DHT22;50159;49.426;11.182;2022-10-31T17:55:31;13.30;99.90
11538;DHT22;50159;49.426;11.182;2022-10-31T17:58:03;13.20;99.90
11538;DHT22;50159;49.426;11.182;2022-10-31T18:00:32;13.20;99.90
11538;DHT22;50159;49.426;11.182;2022-10-31T18:03:01;13.10;99.90
11538;DHT22;50159;49.426;11.182;2022-10-31T18:05:30;13.00;99.90
11538;DHT22;50159;49.426;11.182;2022-10-31T18:07:57;13.00;99.90